sensor_id;sensor_type;location;lat;lon;timestamp;P1;durP1;ratioP1;P2;durP2;ratioP2
8871;SDS011;4472;52.092;9.820;2023-04-24T00:00:47;1.83;;;1.73;;
8871;SDS011;4472;52.092;9.820;2023-04-24T00:03:34;1.90;;;1.80;;
8871;SDS011;4472;52.092;9.820;2023-04-24T00:06:22;2.40;;;1.83;;
8871;SDS011;4472;52.092;9.820;2023-04-24T00:09:10;3.23;;;2.03;;
8871;SDS011;4472;52.092;9.820;2023-04-24T00:11:57;1.93;;;1.83;;
8871;SDS011;4472;52.092;9.820;2023-04-24T00:14:44;2.10;;;2.00;;
8871;SDS011;4472;52.092;9.820;2023-04-24T00:17:31;2.53;;;1.90;;
8871;SDS011;4472;52.092;9.820;2023-04-24T00:20:18;1.93;;;1.80;;
8871;SDS011;4472;52.092;9.820;2023-04-24T00:23:07;1.93;;;1.83;;
8871;SDS011;4472;52.092;9.820;2023-04-24T00:25:54;1.90;;;1.80;;
8871;SDS011;4472;52.092;9.820;2023-04-24T00:28:41;2.53;;;1.70;;
8871;SDS011;4472;52.092;9.820;2023-04-24T00:31:28;5.20;;;1.90;;
8871;SDS011;4472;52.092;9.820;2023-04-24T00:34:15;1.90;;;1.80;;
8871;SDS011;4472;52.092;9.820;2023-04-24T00:37:03;2.00;;;1.90;;
8871;SDS011;4472;52.092;9.820;2023-04-24T00:39:52;2.10;;;2.00;;
8871;SDS011;4472;52.092;9.820;2023-04-24T00:42:40;1.93;;;1.83;;
8871;SDS011;4472;52.092;9.820;2023-04-24T00:45:27;2.20;;;2.00;;
8871;SDS011;4472;52.092;9.820;2023-04-24T00:48:16;3.07;;;1.80;;
8871;SDS011;4472;52.092;9.820;2023-04-24T00:51:04;4.40;;;2.10;;
8871;SDS011;4472;52.092;9.820;2023-04-24T00:53:51;2.50;;;2.30;;
8871;SDS011;4472;52.092;9.820;2023-04-24T00:56:40;3.43;;;2.00;;
8871;SDS011;4472;52.092;9.820;2023-04-24T00:59:27;2.20;;;1.97;;
8871;SDS011;4472;52.092;9.820;2023-04-24T01:02:14;2.00;;;1.90;;
8871;SDS011;4472;52.092;9.820;2023-04-24T01:05:02;2.13;;;1.93;;
8871;SDS011;4472;52.092;9.820;2023-04-24T01:07:50;3.87;;;2.07;;
8871;SDS011;4472;52.092;9.820;2023-04-24T01:10:38;3.17;;;1.90;;
8871;SDS011;4472;52.092;9.820;2023-04-24T01:13:29;2.57;;;1.97;;
8871;SDS011;4472;52.092;9.820;2023-04-24T01:16:17;2.20;;;2.00;;
8871;SDS011;4472;52.092;9.820;2023-04-24T01:19:06;2.10;;;1.90;;
8871;SDS011;4472;52.092;9.820;2023-04-24T01:21:53;2.63;;;2.07;;
8871;SDS011;4472;52.092;9.820;2023-04-24T01:24:45;1.90;;;1.80;;
8871;SDS011;4472;52.092;9.820;2023-04-24T01:27:32;2.07;;;1.90;;
8871;SDS011;4472;52.092;9.820;2023-04-24T01:30:19;4.23;;;2.07;;
8871;SDS011;4472;52.092;9.820;2023-04-24T01:33:06;2.40;;;1.90;;
8871;SDS011;4472;52.092;9.820;2023-04-24T01:35:54;1.93;;;1.83;;
8871;SDS011;4472;52.092;9.820;2023-04-24T01:38:41;1.83;;;1.70;;
8871;SDS011;4472;52.092;9.820;2023-04-24T01:41:30;2.03;;;1.77;;
8871;SDS011;4472;52.092;9.820;2023-04-24T01:44:18;2.37;;;1.80;;
8871;SDS011;4472;52.092;9.820;2023-04-24T01:47:05;3.23;;;1.63;;
8871;SDS011;4472;52.092;9.820;2023-04-24T01:49:53;1.70;;;1.60;;
8871;SDS011;4472;52.092;9.820;2023-04-24T01:52:40;1.87;;;1.70;;
8871;SDS011;4472;52.092;9.820;2023-04-24T01:55:27;2.20;;;1.63;;
8871;SDS011;4472;52.092;9.820;2023-04-24T01:58:16;2.80;;;1.70;;
8871;SDS011;4472;52.092;9.820;2023-04-24T02:01:03;3.13;;;1.93;;
8871;SDS011;4472;52.092;9.820;2023-04-24T02:03:52;2.33;;;1.97;;
8871;SDS011;4472;52.092;9.820;2023-04-24T02:06:40;1.80;;;1.70;;
8871;SDS011;4472;52.092;9.820;2023-04-24T02:09:27;2.03;;;1.80;;
8871;SDS011;4472;52.092;9.820;2023-04-24T02:12:15;2.00;;;1.90;;
8871;SDS011;4472;52.092;9.820;2023-04-24T02:15:04;2.00;;;1.90;;
8871;SDS011;4472;52.092;9.820;2023-04-24T02:17:52;1.93;;;1.83;;
8871;SDS011;4472;52.092;9.820;2023-04-24T02:20:39;2.90;;;2.00;;
8871;SDS011;4472;52.092;9.820;2023-04-24T02:23:27;2.87;;;1.87;;
8871;SDS011;4472;52.092;9.820;2023-04-24T02:26:14;2.40;;;2.20;;
8871;SDS011;4472;52.092;9.820;2023-04-24T02:29:02;1.90;;;1.80;;
8871;SDS011;4472;52.092;9.820;2023-04-24T02:31:51;3.53;;;2.00;;
8871;SDS011;4472;52.092;9.820;2023-04-24T02:34:39;2.40;;;2.00;;
8871;SDS011;4472;52.092;9.820;2023-04-24T02:37:26;1.70;;;1.60;;
8871;SDS011;4472;52.092;9.820;2023-04-24T02:40:14;1.97;;;1.77;;
8871;SDS011;4472;52.092;9.820;2023-04-24T02:43:01;1.70;;;1.60;;
8871;SDS011;4472;52.092;9.820;2023-04-24T02:45:49;1.57;;;1.53;;
8871;SDS011;4472;52.092;9.820;2023-04-24T02:48:37;3.20;;;1.40;;
8871;SDS011;4472;52.092;9.820;2023-04-24T02:51:25;1.67;;;1.57;;
8871;SDS011;4472;52.092;9.820;2023-04-24T02:54:13;4.13;;;3.57;;
8871;SDS011;4472;52.092;9.820;2023-04-24T02:57:00;3.30;;;2.33;;
8871;SDS011;4472;52.092;9.820;2023-04-24T02:59:48;1.70;;;1.60;;
8871;SDS011;4472;52.092;9.820;2023-04-24T03:02:35;3.27;;;1.60;;
8871;SDS011;4472;52.092;9.820;2023-04-24T03:05:24;1.63;;;1.53;;
8871;SDS011;4472;52.092;9.820;2023-04-24T03:08:12;1.80;;;1.70;;
8871;SDS011;4472;52.092;9.820;2023-04-24T03:11:00;1.80;;;1.57;;
8871;SDS011;4472;52.092;9.820;2023-04-24T03:13:48;1.63;;;1.50;;
8871;SDS011;4472;52.092;9.820;2023-04-24T03:16:35;1.40;;;1.30;;
8871;SDS011;4472;52.092;9.820;2023-04-24T03:19:22;1.40;;;1.40;;
8871;SDS011;4472;52.092;9.820;2023-04-24T03:22:11;1.50;;;1.47;;
8871;SDS011;4472;52.092;9.820;2023-04-24T03:24:59;1.47;;;1.40;;
8871;SDS011;4472;52.092;9.820;2023-04-24T03:27:46;1.40;;;1.30;;
8871;SDS011;4472;52.092;9.820;2023-04-24T03:30:34;1.50;;;1.40;;
8871;SDS011;4472;52.092;9.820;2023-04-24T03:33:21;1.70;;;1.60;;
8871;SDS011;4472;52.092;9.820;2023-04-24T03:36:09;1.80;;;1.70;;
8871;SDS011;4472;52.092;9.820;2023-04-24T03:38:58;1.40;;;1.40;;
8871;SDS011;4472;52.092;9.820;2023-04-24T03:41:45;1.70;;;1.60;;
8871;SDS011;4472;52.092;9.820;2023-04-24T03:44:33;1.60;;;1.50;;
8871;SDS011;4472;52.092;9.820;2023-04-24T03:47:20;1.20;;;1.20;;
8871;SDS011;4472;52.092;9.820;2023-04-24T03:50:08;1.40;;;1.33;;
8871;SDS011;4472;52.092;9.820;2023-04-24T03:52:55;1.50;;;1.40;;
8871;SDS011;4472;52.092;9.820;2023-04-24T03:55:44;1.63;;;1.63;;
8871;SDS011;4472;52.092;9.820;2023-04-24T03:58:32;1.57;;;1.47;;
8871;SDS011;4472;52.092;9.820;2023-04-24T04:01:19;1.70;;;1.60;;
8871;SDS011;4472;52.092;9.820;2023-04-24T04:04:07;1.60;;;1.50;;
8871;SDS011;4472;52.092;9.820;2023-04-24T04:06:54;1.67;;;1.57;;
8871;SDS011;4472;52.092;9.820;2023-04-24T04:09:41;1.37;;;1.37;;
8871;SDS011;4472;52.092;9.820;2023-04-24T04:12:29;1.30;;;1.30;;
8871;SDS011;4472;52.092;9.820;2023-04-24T04:15:17;1.73;;;1.60;;
8871;SDS011;4472;52.092;9.820;2023-04-24T04:18:04;1.50;;;1.50;;
8871;SDS011;4472;52.092;9.820;2023-04-24T04:20:54;1.73;;;1.20;;
8871;SDS011;4472;52.092;9.820;2023-04-24T04:23:42;2.30;;;1.77;;
8871;SDS011;4472;52.092;9.820;2023-04-24T04:26:29;1.80;;;1.70;;
8871;SDS011;4472;52.092;9.820;2023-04-24T04:29:19;1.60;;;1.50;;
8871;SDS011;4472;52.092;9.820;2023-04-24T04:32:07;1.87;;;1.60;;
8871;SDS011;4472;52.092;9.820;2023-04-24T04:34:55;1.27;;;1.27;;
8871;SDS011;4472;52.092;9.820;2023-04-24T04:37:42;1.73;;;1.40;;
8871;SDS011;4472;52.092;9.820;2023-04-24T04:40:29;1.60;;;1.50;;
8871;SDS011;4472;52.092;9.820;2023-04-24T04:43:17;1.40;;;1.40;;
8871;SDS011;4472;52.092;9.820;2023-04-24T04:46:05;1.50;;;1.50;;
8871;SDS011;4472;52.092;9.820;2023-04-24T04:48:53;1.40;;;1.40;;
8871;SDS011;4472;52.092;9.820;2023-04-24T04:51:42;2.10;;;1.60;;
8871;SDS011;4472;52.092;9.820;2023-04-24T04:54:30;3.07;;;1.30;;
8871;SDS011;4472;52.092;9.820;2023-04-24T04:57:17;1.87;;;1.77;;
8871;SDS011;4472;52.092;9.820;2023-04-24T05:00:06;1.63;;;1.53;;
8871;SDS011;4472;52.092;9.820;2023-04-24T05:02:57;2.50;;;1.70;;
8871;SDS011;4472;52.092;9.820;2023-04-24T05:05:44;1.83;;;1.73;;
8871;SDS011;4472;52.092;9.820;2023-04-24T05:08:32;1.40;;;1.27;;
8871;SDS011;4472;52.092;9.820;2023-04-24T05:11:19;1.30;;;1.20;;
8871;SDS011;4472;52.092;9.820;2023-04-24T05:14:07;1.60;;;1.50;;
8871;SDS011;4472;52.092;9.820;2023-04-24T05:16:54;1.43;;;1.33;;
8871;SDS011;4472;52.092;9.820;2023-04-24T05:19:43;1.30;;;1.23;;
8871;SDS011;4472;52.092;9.820;2023-04-24T05:22:31;2.30;;;1.10;;
8871;SDS011;4472;52.092;9.820;2023-04-24T05:25:19;1.33;;;1.23;;
8871;SDS011;4472;52.092;9.820;2023-04-24T05:28:06;2.20;;;1.10;;
8871;SDS011;4472;52.092;9.820;2023-04-24T05:30:54;1.37;;;1.20;;
8871;SDS011;4472;52.092;9.820;2023-04-24T05:33:41;1.20;;;1.10;;
8871;SDS011;4472;52.092;9.820;2023-04-24T05:36:30;1.20;;;1.20;;
8871;SDS011;4472;52.092;9.820;2023-04-24T05:39:18;1.80;;;1.20;;
8871;SDS011;4472;52.092;9.820;2023-04-24T05:42:05;1.33;;;1.20;;
8871;SDS011;4472;52.092;9.820;2023-04-24T05:44:53;3.63;;;1.40;;
8871;SDS011;4472;52.092;9.820;2023-04-24T05:47:40;1.13;;;1.13;;
8871;SDS011;4472;52.092;9.820;2023-04-24T05:50:27;2.20;;;1.10;;
8871;SDS011;4472;52.092;9.820;2023-04-24T05:53:16;1.43;;;1.10;;
8871;SDS011;4472;52.092;9.820;2023-04-24T05:56:04;1.10;;;1.10;;
8871;SDS011;4472;52.092;9.820;2023-04-24T05:58:51;1.77;;;1.10;;
8871;SDS011;4472;52.092;9.820;2023-04-24T06:01:38;1.03;;;1.03;;
8871;SDS011;4472;52.092;9.820;2023-04-24T06:04:26;1.20;;;1.10;;
8871;SDS011;4472;52.092;9.820;2023-04-24T06:07:13;1.30;;;1.30;;
8871;SDS011;4472;52.092;9.820;2023-04-24T06:10:02;1.10;;;1.10;;
8871;SDS011;4472;52.092;9.820;2023-04-24T06:12:50;2.80;;;1.40;;
8871;SDS011;4472;52.092;9.820;2023-04-24T06:15:37;1.70;;;1.60;;
8871;SDS011;4472;52.092;9.820;2023-04-24T06:18:26;1.80;;;1.70;;
8871;SDS011;4472;52.092;9.820;2023-04-24T06:21:13;2.10;;;1.90;;
8871;SDS011;4472;52.092;9.820;2023-04-24T06:24:00;1.80;;;1.70;;
8871;SDS011;4472;52.092;9.820;2023-04-24T06:26:50;2.87;;;1.80;;
8871;SDS011;4472;52.092;9.820;2023-04-24T06:29:37;2.00;;;1.80;;
8871;SDS011;4472;52.092;9.820;2023-04-24T06:32:25;1.87;;;1.70;;
8871;SDS011;4472;52.092;9.820;2023-04-24T06:35:13;1.90;;;1.80;;
8871;SDS011;4472;52.092;9.820;2023-04-24T06:38:00;1.47;;;1.37;;
8871;SDS011;4472;52.092;9.820;2023-04-24T06:40:47;1.77;;;1.67;;
8871;SDS011;4472;52.092;9.820;2023-04-24T06:43:36;2.20;;;1.60;;
8871;SDS011;4472;52.092;9.820;2023-04-24T06:46:24;2.00;;;1.90;;
8871;SDS011;4472;52.092;9.820;2023-04-24T06:49:12;1.80;;;1.70;;
8871;SDS011;4472;52.092;9.820;2023-04-24T06:52:01;1.90;;;1.80;;
8871;SDS011;4472;52.092;9.820;2023-04-24T06:54:48;2.43;;;2.00;;
8871;SDS011;4472;52.092;9.820;2023-04-24T06:57:36;3.50;;;2.40;;
8871;SDS011;4472;52.092;9.820;2023-04-24T07:00:25;2.60;;;2.40;;
8871;SDS011;4472;52.092;9.820;2023-04-24T07:03:12;3.00;;;2.60;;
8871;SDS011;4472;52.092;9.820;2023-04-24T07:06:00;3.20;;;2.87;;
8871;SDS011;4472;52.092;9.820;2023-04-24T07:08:48;3.07;;;2.60;;
8871;SDS011;4472;52.092;9.820;2023-04-24T07:11:36;2.97;;;2.70;;
8871;SDS011;4472;52.092;9.820;2023-04-24T07:14:24;4.37;;;3.43;;
8871;SDS011;4472;52.092;9.820;2023-04-24T07:17:13;4.43;;;3.80;;
8871;SDS011;4472;52.092;9.820;2023-04-24T07:20:01;4.17;;;3.80;;
8871;SDS011;4472;52.092;9.820;2023-04-24T07:22:49;5.70;;;4.87;;
8871;SDS011;4472;52.092;9.820;2023-04-24T07:25:37;5.57;;;5.07;;
8871;SDS011;4472;52.092;9.820;2023-04-24T07:28:25;6.07;;;5.33;;
8871;SDS011;4472;52.092;9.820;2023-04-24T07:31:16;7.83;;;5.40;;
8871;SDS011;4472;52.092;9.820;2023-04-24T07:34:05;6.07;;;5.47;;
8871;SDS011;4472;52.092;9.820;2023-04-24T07:36:52;6.23;;;5.60;;
8871;SDS011;4472;52.092;9.820;2023-04-24T07:39:40;5.63;;;5.13;;
8871;SDS011;4472;52.092;9.820;2023-04-24T07:42:28;6.20;;;5.60;;
8871;SDS011;4472;52.092;9.820;2023-04-24T07:45:16;5.83;;;5.30;;
8871;SDS011;4472;52.092;9.820;2023-04-24T07:48:04;6.50;;;5.93;;
8871;SDS011;4472;52.092;9.820;2023-04-24T07:50:53;5.60;;;5.10;;
8871;SDS011;4472;52.092;9.820;2023-04-24T07:53:40;6.10;;;5.50;;
8871;SDS011;4472;52.092;9.820;2023-04-24T07:56:28;6.50;;;5.90;;
8871;SDS011;4472;52.092;9.820;2023-04-24T07:59:16;6.17;;;5.60;;
8871;SDS011;4472;52.092;9.820;2023-04-24T08:02:04;5.30;;;4.80;;
8871;SDS011;4472;52.092;9.820;2023-04-24T08:04:51;4.87;;;4.43;;
8871;SDS011;4472;52.092;9.820;2023-04-24T08:07:41;5.20;;;4.80;;
8871;SDS011;4472;52.092;9.820;2023-04-24T08:10:28;4.40;;;4.00;;
8871;SDS011;4472;52.092;9.820;2023-04-24T08:13:16;4.27;;;3.90;;
8871;SDS011;4472;52.092;9.820;2023-04-24T08:16:03;4.33;;;4.03;;
8871;SDS011;4472;52.092;9.820;2023-04-24T08:18:51;4.03;;;3.60;;
8871;SDS011;4472;52.092;9.820;2023-04-24T08:21:40;4.17;;;3.87;;
8871;SDS011;4472;52.092;9.820;2023-04-24T08:24:28;4.23;;;3.83;;
8871;SDS011;4472;52.092;9.820;2023-04-24T08:27:16;4.20;;;3.90;;
8871;SDS011;4472;52.092;9.820;2023-04-24T08:30:03;4.00;;;3.70;;
8871;SDS011;4472;52.092;9.820;2023-04-24T08:32:51;4.27;;;3.97;;
8871;SDS011;4472;52.092;9.820;2023-04-24T08:35:39;4.93;;;4.10;;
8871;SDS011;4472;52.092;9.820;2023-04-24T08:38:26;7.40;;;5.87;;
8871;SDS011;4472;52.092;9.820;2023-04-24T08:41:15;5.37;;;4.37;;
8871;SDS011;4472;52.092;9.820;2023-04-24T08:44:02;4.47;;;4.07;;
8871;SDS011;4472;52.092;9.820;2023-04-24T08:46:50;14.90;;;11.10;;
8871;SDS011;4472;52.092;9.820;2023-04-24T08:49:38;8.63;;;5.23;;
8871;SDS011;4472;52.092;9.820;2023-04-24T08:52:26;6.87;;;5.27;;
8871;SDS011;4472;52.092;9.820;2023-04-24T08:55:13;41.17;;;19.37;;
8871;SDS011;4472;52.092;9.820;2023-04-24T08:58:03;6.90;;;6.30;;
8871;SDS011;4472;52.092;9.820;2023-04-24T09:00:51;4.30;;;3.90;;
8871;SDS011;4472;52.092;9.820;2023-04-24T09:03:39;5.13;;;3.67;;
8871;SDS011;4472;52.092;9.820;2023-04-24T09:06:27;4.53;;;3.57;;
8871;SDS011;4472;52.092;9.820;2023-04-24T09:09:15;4.63;;;3.83;;
8871;SDS011;4472;52.092;9.820;2023-04-24T09:12:04;5.70;;;5.10;;
8871;SDS011;4472;52.092;9.820;2023-04-24T09:17:25;3.13;;;2.90;;
8871;SDS011;4472;52.092;9.820;2023-04-24T09:20:13;3.60;;;2.70;;
8871;SDS011;4472;52.092;9.820;2023-04-24T09:23:01;4.30;;;3.00;;
8871;SDS011;4472;52.092;9.820;2023-04-24T09:25:48;3.20;;;2.90;;
8871;SDS011;4472;52.092;9.820;2023-04-24T09:28:41;3.10;;;2.90;;
8871;SDS011;4472;52.092;9.820;2023-04-24T09:31:29;2.83;;;2.63;;
8871;SDS011;4472;52.092;9.820;2023-04-24T09:34:21;3.00;;;2.80;;
8871;SDS011;4472;52.092;9.820;2023-04-24T09:37:09;4.07;;;3.40;;
8871;SDS011;4472;52.092;9.820;2023-04-24T09:40:10;4.07;;;2.97;;
8871;SDS011;4472;52.092;9.820;2023-04-24T09:42:57;3.50;;;3.20;;
8871;SDS011;4472;52.092;9.820;2023-04-24T09:45:46;3.40;;;3.17;;
8871;SDS011;4472;52.092;9.820;2023-04-24T09:48:34;3.33;;;3.03;;
8871;SDS011;4472;52.092;9.820;2023-04-24T09:51:33;3.00;;;2.73;;
8871;SDS011;4472;52.092;9.820;2023-04-24T09:54:21;3.60;;;2.87;;
8871;SDS011;4472;52.092;9.820;2023-04-24T09:57:10;4.27;;;2.80;;
8871;SDS011;4472;52.092;9.820;2023-04-24T09:59:58;3.10;;;2.80;;
8871;SDS011;4472;52.092;9.820;2023-04-24T10:02:49;2.97;;;2.77;;
8871;SDS011;4472;52.092;9.820;2023-04-24T10:05:38;2.80;;;2.60;;
8871;SDS011;4472;52.092;9.820;2023-04-24T10:08:29;3.00;;;2.73;;
8871;SDS011;4472;52.092;9.820;2023-04-24T10:11:20;4.53;;;2.70;;
8871;SDS011;4472;52.092;9.820;2023-04-24T10:14:07;2.97;;;2.73;;
8871;SDS011;4472;52.092;9.820;2023-04-24T10:16:57;3.13;;;2.43;;
8871;SDS011;4472;52.092;9.820;2023-04-24T10:19:45;3.97;;;2.70;;
8871;SDS011;4472;52.092;9.820;2023-04-24T10:22:33;6.97;;;2.73;;
8871;SDS011;4472;52.092;9.820;2023-04-24T10:25:23;3.10;;;2.90;;
8871;SDS011;4472;52.092;9.820;2023-04-24T10:28:11;2.97;;;2.73;;
8871;SDS011;4472;52.092;9.820;2023-04-24T10:30:59;3.43;;;3.13;;
8871;SDS011;4472;52.092;9.820;2023-04-24T10:33:47;4.57;;;3.43;;
8871;SDS011;4472;52.092;9.820;2023-04-24T10:36:35;5.83;;;3.10;;
8871;SDS011;4472;52.092;9.820;2023-04-24T10:39:23;3.77;;;3.43;;
8871;SDS011;4472;52.092;9.820;2023-04-24T10:42:15;3.17;;;2.70;;
8871;SDS011;4472;52.092;9.820;2023-04-24T10:45:04;3.00;;;2.80;;
8871;SDS011;4472;52.092;9.820;2023-04-24T10:47:52;2.87;;;2.67;;
8871;SDS011;4472;52.092;9.820;2023-04-24T10:50:43;4.47;;;3.00;;
8871;SDS011;4472;52.092;9.820;2023-04-24T10:53:31;3.03;;;2.83;;
8871;SDS011;4472;52.092;9.820;2023-04-24T10:56:22;3.97;;;2.50;;
8871;SDS011;4472;52.092;9.820;2023-04-24T10:59:11;2.23;;;2.03;;
8871;SDS011;4472;52.092;9.820;2023-04-24T11:02:10;1.93;;;1.83;;
8871;SDS011;4472;52.092;9.820;2023-04-24T11:04:58;2.30;;;2.10;;
8871;SDS011;4472;52.092;9.820;2023-04-24T11:10:57;2.27;;;2.17;;
8871;SDS011;4472;52.092;9.820;2023-04-24T11:14:01;2.43;;;1.80;;
8871;SDS011;4472;52.092;9.820;2023-04-24T11:16:52;2.50;;;2.30;;
8871;SDS011;4472;52.092;9.820;2023-04-24T11:19:40;2.50;;;2.30;;
8871;SDS011;4472;52.092;9.820;2023-04-24T11:22:27;2.47;;;2.27;;
8871;SDS011;4472;52.092;9.820;2023-04-24T11:25:16;2.20;;;1.90;;
8871;SDS011;4472;52.092;9.820;2023-04-24T11:28:04;2.07;;;1.97;;
8871;SDS011;4472;52.092;9.820;2023-04-24T11:30:51;3.27;;;2.20;;
8871;SDS011;4472;52.092;9.820;2023-04-24T11:33:40;2.40;;;2.30;;
8871;SDS011;4472;52.092;9.820;2023-04-24T11:36:28;1.90;;;1.80;;
8871;SDS011;4472;52.092;9.820;2023-04-24T11:39:18;2.07;;;1.97;;
8871;SDS011;4472;52.092;9.820;2023-04-24T11:42:06;2.10;;;2.00;;
8871;SDS011;4472;52.092;9.820;2023-04-24T11:44:54;2.00;;;1.90;;
8871;SDS011;4472;52.092;9.820;2023-04-24T11:47:42;2.87;;;1.90;;
8871;SDS011;4472;52.092;9.820;2023-04-24T11:50:31;2.30;;;2.07;;
8871;SDS011;4472;52.092;9.820;2023-04-24T11:53:19;2.30;;;2.20;;
8871;SDS011;4472;52.092;9.820;2023-04-24T11:56:08;2.60;;;2.47;;
8871;SDS011;4472;52.092;9.820;2023-04-24T11:58:55;2.97;;;2.60;;
8871;SDS011;4472;52.092;9.820;2023-04-24T12:01:43;2.90;;;2.70;;
8871;SDS011;4472;52.092;9.820;2023-04-24T12:04:38;4.60;;;2.60;;
8871;SDS011;4472;52.092;9.820;2023-04-24T12:07:27;2.40;;;2.20;;
8871;SDS011;4472;52.092;9.820;2023-04-24T12:10:19;2.10;;;2.00;;
8871;SDS011;4472;52.092;9.820;2023-04-24T12:13:08;1.40;;;1.40;;
8871;SDS011;4472;52.092;9.820;2023-04-24T12:15:57;1.30;;;1.30;;
8871;SDS011;4472;52.092;9.820;2023-04-24T12:18:45;1.50;;;1.40;;
8871;SDS011;4472;52.092;9.820;2023-04-24T12:21:32;1.40;;;1.30;;
8871;SDS011;4472;52.092;9.820;2023-04-24T12:24:21;1.30;;;1.30;;
8871;SDS011;4472;52.092;9.820;2023-04-24T12:27:18;0.97;;;0.97;;
8871;SDS011;4472;52.092;9.820;2023-04-24T12:30:09;1.00;;;1.00;;
8871;SDS011;4472;52.092;9.820;2023-04-24T12:32:57;0.90;;;0.90;;
8871;SDS011;4472;52.092;9.820;2023-04-24T12:35:45;1.23;;;1.13;;
8871;SDS011;4472;52.092;9.820;2023-04-24T12:38:33;1.20;;;1.20;;
8871;SDS011;4472;52.092;9.820;2023-04-24T12:41:27;1.10;;;1.10;;
8871;SDS011;4472;52.092;9.820;2023-04-24T12:44:17;1.10;;;1.10;;
8871;SDS011;4472;52.092;9.820;2023-04-24T12:47:05;1.20;;;1.20;;
8871;SDS011;4472;52.092;9.820;2023-04-24T12:49:52;1.17;;;1.17;;
8871;SDS011;4472;52.092;9.820;2023-04-24T12:52:41;1.40;;;1.30;;
8871;SDS011;4472;52.092;9.820;2023-04-24T12:55:28;1.30;;;1.30;;
8871;SDS011;4472;52.092;9.820;2023-04-24T12:58:17;1.60;;;1.50;;
8871;SDS011;4472;52.092;9.820;2023-04-24T13:01:04;2.80;;;1.50;;
8871;SDS011;4472;52.092;9.820;2023-04-24T13:03:52;1.40;;;1.40;;
8871;SDS011;4472;52.092;9.820;2023-04-24T13:06:39;1.40;;;1.40;;
8871;SDS011;4472;52.092;9.820;2023-04-24T13:09:27;1.73;;;1.63;;
8871;SDS011;4472;52.092;9.820;2023-04-24T13:12:15;1.50;;;1.40;;
8871;SDS011;4472;52.092;9.820;2023-04-24T13:15:04;1.40;;;1.30;;
8871;SDS011;4472;52.092;9.820;2023-04-24T13:17:52;3.07;;;2.87;;
8871;SDS011;4472;52.092;9.820;2023-04-24T13:20:39;2.40;;;2.20;;
8871;SDS011;4472;52.092;9.820;2023-04-24T13:23:27;1.50;;;1.40;;
8871;SDS011;4472;52.092;9.820;2023-04-24T13:26:15;1.20;;;1.20;;
8871;SDS011;4472;52.092;9.820;2023-04-24T13:29:02;1.53;;;1.20;;
8871;SDS011;4472;52.092;9.820;2023-04-24T13:31:51;1.33;;;1.27;;
8871;SDS011;4472;52.092;9.820;2023-04-24T13:34:39;1.00;;;1.00;;
8871;SDS011;4472;52.092;9.820;2023-04-24T13:37:27;1.00;;;1.00;;
8871;SDS011;4472;52.092;9.820;2023-04-24T13:40:14;1.27;;;1.27;;
8871;SDS011;4472;52.092;9.820;2023-04-24T13:43:02;0.87;;;0.87;;
8871;SDS011;4472;52.092;9.820;2023-04-24T13:45:49;0.90;;;0.90;;
8871;SDS011;4472;52.092;9.820;2023-04-24T13:48:38;0.90;;;0.90;;
8871;SDS011;4472;52.092;9.820;2023-04-24T13:51:25;1.00;;;1.00;;
8871;SDS011;4472;52.092;9.820;2023-04-24T13:54:13;0.80;;;0.80;;
8871;SDS011;4472;52.092;9.820;2023-04-24T13:57:00;2.20;;;1.10;;
8871;SDS011;4472;52.092;9.820;2023-04-24T13:59:48;1.10;;;1.10;;
8871;SDS011;4472;52.092;9.820;2023-04-24T14:02:35;1.33;;;1.23;;
8871;SDS011;4472;52.092;9.820;2023-04-24T14:05:23;1.03;;;1.03;;
8871;SDS011;4472;52.092;9.820;2023-04-24T14:08:10;1.03;;;1.03;;
8871;SDS011;4472;52.092;9.820;2023-04-24T14:10:58;1.00;;;1.00;;
8871;SDS011;4472;52.092;9.820;2023-04-24T14:13:45;1.10;;;1.10;;
8871;SDS011;4472;52.092;9.820;2023-04-24T14:16:33;1.23;;;1.13;;
8871;SDS011;4472;52.092;9.820;2023-04-24T14:19:20;1.00;;;1.00;;
8871;SDS011;4472;52.092;9.820;2023-04-24T14:22:09;1.10;;;1.10;;
8871;SDS011;4472;52.092;9.820;2023-04-24T14:24:56;1.17;;;1.00;;
8871;SDS011;4472;52.092;9.820;2023-04-24T14:27:43;1.30;;;1.10;;
8871;SDS011;4472;52.092;9.820;2023-04-24T14:30:30;1.40;;;1.30;;
8871;SDS011;4472;52.092;9.820;2023-04-24T14:33:18;1.67;;;1.60;;
8871;SDS011;4472;52.092;9.820;2023-04-24T14:36:05;1.60;;;1.50;;
8871;SDS011;4472;52.092;9.820;2023-04-24T14:38:54;1.53;;;1.43;;
8871;SDS011;4472;52.092;9.820;2023-04-24T14:41:41;2.03;;;1.60;;
8871;SDS011;4472;52.092;9.820;2023-04-24T14:44:28;1.67;;;1.57;;
8871;SDS011;4472;52.092;9.820;2023-04-24T14:47:15;1.63;;;1.30;;
8871;SDS011;4472;52.092;9.820;2023-04-24T14:50:07;2.57;;;1.20;;
8871;SDS011;4472;52.092;9.820;2023-04-24T14:52:54;1.80;;;1.50;;
8871;SDS011;4472;52.092;9.820;2023-04-24T14:55:44;1.90;;;1.70;;
8871;SDS011;4472;52.092;9.820;2023-04-24T14:58:31;1.87;;;1.60;;
8871;SDS011;4472;52.092;9.820;2023-04-24T15:01:18;2.53;;;1.73;;
8871;SDS011;4472;52.092;9.820;2023-04-24T15:04:05;2.47;;;2.00;;
8871;SDS011;4472;52.092;9.820;2023-04-24T15:06:52;2.00;;;1.80;;
8871;SDS011;4472;52.092;9.820;2023-04-24T15:09:40;2.40;;;1.90;;
8871;SDS011;4472;52.092;9.820;2023-04-24T15:12:29;4.17;;;2.50;;
8871;SDS011;4472;52.092;9.820;2023-04-24T15:15:17;5.37;;;2.20;;
8871;SDS011;4472;52.092;9.820;2023-04-24T15:18:04;2.90;;;2.20;;
8871;SDS011;4472;52.092;9.820;2023-04-24T15:20:53;5.87;;;2.30;;
8871;SDS011;4472;52.092;9.820;2023-04-24T15:23:41;3.07;;;2.87;;
8871;SDS011;4472;52.092;9.820;2023-04-24T15:26:28;4.27;;;2.70;;
8871;SDS011;4472;52.092;9.820;2023-04-24T15:29:17;5.83;;;3.30;;
8871;SDS011;4472;52.092;9.820;2023-04-24T15:32:04;3.53;;;3.17;;
8871;SDS011;4472;52.092;9.820;2023-04-24T15:34:52;4.23;;;3.10;;
8871;SDS011;4472;52.092;9.820;2023-04-24T15:37:40;5.53;;;3.27;;
8871;SDS011;4472;52.092;9.820;2023-04-24T15:40:27;4.57;;;3.23;;
8871;SDS011;4472;52.092;9.820;2023-04-24T15:43:14;3.50;;;3.07;;
8871;SDS011;4472;52.092;9.820;2023-04-24T15:46:03;3.67;;;3.20;;
8871;SDS011;4472;52.092;9.820;2023-04-24T15:48:51;6.33;;;3.50;;
8871;SDS011;4472;52.092;9.820;2023-04-24T15:51:38;3.83;;;3.43;;
8871;SDS011;4472;52.092;9.820;2023-04-24T15:54:26;6.23;;;3.80;;
8871;SDS011;4472;52.092;9.820;2023-04-24T15:57:13;8.77;;;4.23;;
8871;SDS011;4472;52.092;9.820;2023-04-24T16:00:01;7.80;;;4.70;;
8871;SDS011;4472;52.092;9.820;2023-04-24T16:02:52;7.97;;;5.53;;
8871;SDS011;4472;52.092;9.820;2023-04-24T16:05:40;7.93;;;4.93;;
8871;SDS011;4472;52.092;9.820;2023-04-24T16:08:27;8.17;;;5.07;;
8871;SDS011;4472;52.092;9.820;2023-04-24T16:11:15;11.03;;;5.67;;
8871;SDS011;4472;52.092;9.820;2023-04-24T16:14:02;9.77;;;5.10;;
8871;SDS011;4472;52.092;9.820;2023-04-24T16:16:49;8.63;;;5.17;;
8871;SDS011;4472;52.092;9.820;2023-04-24T16:19:41;8.53;;;6.17;;
8871;SDS011;4472;52.092;9.820;2023-04-24T16:22:28;10.43;;;5.97;;
8871;SDS011;4472;52.092;9.820;2023-04-24T16:25:15;7.90;;;6.03;;
8871;SDS011;4472;52.092;9.820;2023-04-24T16:28:03;8.73;;;6.10;;
8871;SDS011;4472;52.092;9.820;2023-04-24T16:30:50;9.67;;;5.53;;
8871;SDS011;4472;52.092;9.820;2023-04-24T16:33:38;6.83;;;5.53;;
8871;SDS011;4472;52.092;9.820;2023-04-24T16:36:27;9.57;;;5.50;;
8871;SDS011;4472;52.092;9.820;2023-04-24T16:39:14;9.83;;;5.50;;
8871;SDS011;4472;52.092;9.820;2023-04-24T16:42:02;8.17;;;5.40;;
8871;SDS011;4472;52.092;9.820;2023-04-24T16:44:49;8.80;;;4.90;;
8871;SDS011;4472;52.092;9.820;2023-04-24T16:47:37;6.87;;;4.50;;
8871;SDS011;4472;52.092;9.820;2023-04-24T16:50:24;7.23;;;4.67;;
8871;SDS011;4472;52.092;9.820;2023-04-24T16:53:13;6.50;;;4.73;;
8871;SDS011;4472;52.092;9.820;2023-04-24T16:56:01;7.63;;;4.07;;
8871;SDS011;4472;52.092;9.820;2023-04-24T16:58:48;8.53;;;4.07;;
8871;SDS011;4472;52.092;9.820;2023-04-24T17:01:36;6.60;;;3.77;;
8871;SDS011;4472;52.092;9.820;2023-04-24T17:04:23;4.27;;;3.37;;
8871;SDS011;4472;52.092;9.820;2023-04-24T17:07:11;7.47;;;5.40;;
8871;SDS011;4472;52.092;9.820;2023-04-24T17:09:59;4.13;;;3.70;;
8871;SDS011;4472;52.092;9.820;2023-04-24T17:12:47;6.80;;;3.77;;
8871;SDS011;4472;52.092;9.820;2023-04-24T17:15:34;5.37;;;3.60;;
8871;SDS011;4472;52.092;9.820;2023-04-24T17:18:21;6.37;;;3.67;;
8871;SDS011;4472;52.092;9.820;2023-04-24T17:21:08;5.07;;;3.67;;
8871;SDS011;4472;52.092;9.820;2023-04-24T17:23:55;3.40;;;3.10;;
8871;SDS011;4472;52.092;9.820;2023-04-24T17:26:44;5.53;;;3.27;;
8871;SDS011;4472;52.092;9.820;2023-04-24T17:29:31;5.33;;;3.43;;